createdAt,value
2023-03-18T10:51:50.154Z,13.10
2023-03-18T10:54:23.423Z,17.20
2023-03-18T10:56:52.655Z,17.50
2023-03-18T10:59:22.699Z,17.60
2023-03-18T11:01:56.056Z,17.40
2023-03-18T11:06:58.873Z,18.20
2023-03-18T11:09:37.065Z,18.60
2023-03-18T11:12:07.286Z,18.40
2023-03-18T11:14:37.614Z,18.30
2023-03-18T11:17:18.227Z,18.70
2023-03-18T11:19:50.509Z,18.80
2023-03-18T11:22:25.461Z,18.50
2023-03-18T11:25:14.971Z,18.80
2023-03-18T11:27:45.914Z,18.70
2023-03-18T11:30:16.672Z,19.00
2023-03-18T11:32:59.078Z,19.40
2023-03-18T11:35:52.793Z,18.90
2023-03-18T11:38:31.113Z,18.40
2023-03-18T11:41:22.029Z,19.20
2023-03-18T11:44:03.810Z,19.00
2023-03-18T11:46:32.614Z,19.50
2023-03-18T11:48:59.796Z,20.10
2023-03-18T11:51:42.920Z,20.40
2023-03-18T11:54:38.370Z,19.90
2023-03-18T11:57:32.933Z,19.60
2023-03-18T12:00:18.289Z,19.50
2023-03-18T12:03:23.380Z,19.90
2023-03-18T12:06:20.717Z,19.10
2023-03-18T12:08:51.255Z,19.30
2023-03-18T12:11:39.694Z,19.70
2023-03-18T12:14:22.689Z,20.10
2023-03-18T12:17:22.016Z,20.30
2023-03-18T12:19:57.817Z,19.80
2023-03-18T12:22:35.720Z,19.00
2023-03-18T12:25:31.456Z,18.60
2023-03-18T12:27:58.662Z,18.50
2023-03-18T12:30:44.429Z,18.60
2023-03-18T12:33:36.857Z,18.40
2023-03-18T12:36:28.347Z,18.50
2023-03-18T12:39:22.877Z,18.80
2023-03-18T12:42:13.551Z,19.10
2023-03-18T12:44:43.449Z,19.20
2023-03-18T12:47:38.927Z,19.10
2023-03-18T12:50:28.303Z,18.50
2023-03-18T12:53:00.961Z,18.40
2023-03-18T12:55:36.636Z,18.60
2023-03-18T12:58:23.678Z,19.50
2023-03-18T13:00:57.148Z,19.80
2023-03-18T13:03:38.799Z,19.00
2023-03-18T13:06:14.219Z,18.80
2023-03-18T13:09:05.003Z,18.50
2023-03-18T13:11:40.773Z,18.00
2023-03-18T13:14:21.838Z,18.00
2023-03-18T13:16:50.495Z,17.80
2023-03-18T13:19:18.492Z,17.90
2023-03-18T13:21:56.691Z,17.60
2023-03-18T13:24:45.146Z,17.60
2023-03-18T13:27:33.950Z,17.70
2023-03-18T13:30:33.364Z,17.60
2023-03-18T13:33:17.804Z,17.60
2023-03-18T13:35:44.897Z,17.50
2023-03-18T13:38:24.031Z,17.40
2023-03-18T13:40:57.239Z,17.20
2023-03-18T13:43:25.734Z,17.20
2023-03-18T13:45:55.051Z,17.30
2023-03-18T13:48:32.032Z,17.20
2023-03-18T13:50:59.294Z,17.10
2023-03-18T13:53:30.961Z,17.10
2023-03-18T13:55:57.815Z,17.00
2023-03-18T13:58:45.491Z,16.90
2023-03-18T14:01:18.341Z,16.90
2023-03-18T14:03:45.195Z,16.90
2023-03-18T14:06:24.661Z,16.80
2023-03-18T14:08:53.194Z,16.80
2023-03-18T14:11:20.363Z,16.60
2023-03-18T14:13:57.315Z,16.40
2023-03-18T20:46:17.379Z,16.20
2023-03-18T20:48:45.070Z,12.40
